Etusivu
METAR-TAF:

METAR-TAF

Lentoasemat :

Kööpenhamina, Tanska

Kööpenhaminan lentoasema

Leveyspiiri: 55-37N, Pituuspiiri: 012-39E, korkeus merenpinnasta: 5 m

Tämänhetkinen sää

Tämä raportti tehtiin 43 minuuttia sitten, kello 01.20 UTC
Tuuli 6 kn lännestä/lounaasta
Lämpötila 2°C
Kosteus 100%
Ilmanpaine 1009 hPa
Näkyvyys 10 km tai enemmän
ei pilviä alle 1500 m:ssä eikä cumulonimbus-pilviä

METAR: EKCH 250120Z 25006KT CAVOK 02/02 Q1009 RKC/ NOSIG

Aika: 03:03 (02:03 UTC)

Sääennuste

Tämä raportti tehtiin 2 tuntia ja 56 minuuttia sitten, kello 23.07 UTC
Ennuste voimassa 25. päivästä klo 00 UTC - 25. päivään klo 24 UTC
Tuuli 8 kn lounaasta
Näkyvyys 10 km tai enemmän
Muutamia pilviä 3000 ft:n korkeudessa
Todennäköisyys 40%
25. päivästä klo 00 UTC - 25. päivään klo 09 UTC
Näkyvyys: 2000 m
Matala sumu

TAF: EKCH 242307Z 2500/2524 23008KT 9999 FEW030 PROB40 2500/2509 2000 MIFG

Säähavainnot ja -ennusteet yli 4000 lentoasemalta (METAR- ja TAF-raportit).

Käytössä olevat sääasemat on merkitty karttaan keltaisilla ja punaisilla pisteillä.

Aseta hiiri pisteen päälle nähdäksesi sääaseman nimen.

Klikkaa sitten nähdäksesi säähavainnot ja -ennusteet.

Kartan vaihtaminen: klikkaa mustalla rastilla varustettuja vihreitä pisteitä, niin voit zoomata sisään; viivalla varustettua vihreää pistettä, niin voit zoomata ulos tai vihreitä nuolia, niin pääset viereisille kartoille.


METAR-TAF: